Historyczne dane pomiarowe

Dodano dane terminowe – wersja testowa.

Dane z okresu 1951-2019

Wersja bazy: 1.34 [2019-03-16, lista zmian], aktualizacja planowana na 2019-04-15

Dane meteo z obszaru Polski uzyskane na podstawie danych udostępnionych przez Instytut Meteorologii i Gospodarki Wodnej – Państwowy Instytut Badawczy.

 

Wybierz Datę:    

       

TemperaturaWilgotnośćWiatrCiśnienieOpadyŚniegCzas trwania zjawisk
 Stacja t tx tn tng RH VA  wxwx mslp ppp RRR   cm mm wxwxwxwxwxwxwx
1985-08-13 12.7 15.9 10.0- 89.0 13.1 2.9 2.6 0.0 0.0- 810.9 0.0 0.0 0.0- 0.0 4.8--- 0.2 4.0--
1985-08-14 14.9 18.9 12.0- 64.9 11.1 2.0 2.0 0.0 0.0- 811.9 0.0 0.0 0.0- 0.0 11.7---- 5.0--
1985-08-15 15.5 19.2 12.6- 52.8 9.5 2.1 2.9 0.0 0.0- 811.3 0.0 0.0 0.0- 0.0 9.4 0.2----- 1.2
1985-08-16 13.8 18.2 11.2- 68.3 10.8 2.6 4.0 0.0 0.0- 809.2 0.1 0.1 0.0- 0.0 9.9 0.3--- 4.0--
1985-08-17 11.8 16.0 10.5- 84.6 11.6 3.9 4.8 0.0 0.0- 805.8 7.9 0.5 7.4- 0.0 5.0 0.7--- 5.0- 1.2
1985-08-18 6.6 11.7 2.3- 98.6 9.8 7.6 8.0 4.8 0.0- 800.8 26.0 26.0 0.0- 0.0 0.3 9.6-- 0.2-- 6.9
1985-08-19 2.6 5.5 0.2- 90.4 6.6 6.0 4.3 0.0 0.0- 799.2 0.8 0.0 0.8- 0.0 2.1--- 6.5---
1985-08-20 5.3 6.1 3.2- 97.5 8.7 6.9 10.6 11.8 0.0- 798.6 14.8 11.8 3.0- 0.0 0.0 11.3-- 20.3---
1985-08-21 6.2 11.6 3.8- 87.1 8.1 5.1 7.5 5.5 0.0- 804.6 0.0 0.0 0.0- 0.0 7.5 4.2-- 9.3---
1985-08-22 9.6 14.2 6.2- 74.3 8.7 3.4 4.8 0.0 0.0- 806.6 0.0 0.0 0.0- 0.0 11.8--- 4.0---
1985-08-23 10.6 12.5 8.5- 79.6 10.0 6.1 3.6 0.0 0.0- 806.7 11.9 11.9 0.0- 0.0 2.8 1.0-- 12.9-- 2.1
1985-08-24 11.0 14.4 7.5- 76.5 10.0 1.4 8.8 11.5 0.0- 805.6 0.0 0.0 0.0- 0.0 12.0-------
1985-08-25 13.2 16.1 10.5- 71.3 10.8 1.5 11.9 20.0 1.3- 803.1 0.0 0.0 0.0- 0.0 11.5-------
1985-08-26 12.0 16.4 10.6- 79.9 11.0 4.9 9.9 15.3 0.0- 800.8 33.4 0.0 33.4- 0.0 9.2 4.7-- 6.5 2.0- 0.9
1985-08-27 2.8 10.6 0.1-100.0 7.5 8.0 8.1 8.5 0.0- 801.5 51.6 24.6 27.0- 0.0 0.0 15.8 1.2 7.0 24.0---
1985-08-28 3.2 3.8 0.1-100.0 7.7 8.0 8.9 4.5 0.0- 805.3 11.9 4.7 7.2- 0.0 0.0 21.7-- 24.0---
1985-08-29 6.1 7.0 3.5-100.0 9.4 8.0 8.8 0.0 0.0- 806.0 4.6 3.6 1.0- 0.0 0.0 13.3-- 24.0---
1985-08-30 6.9 8.0 5.4-100.0 9.9 8.0 7.3 0.0 0.0- 806.7 1.6 1.6 0.0- 0.0 0.0 6.8-- 24.0---
1985-08-31 7.6 11.0 5.0- 96.3 10.1 4.1 2.0 0.0 0.0- 806.3 0.0 0.0 0.0- 0.0 5.1--- 8.3 2.0--
1985-09-01 9.0 12.8 6.9- 82.6 9.5 3.5 3.3 0.0 0.0- 803.9 2.0 0.0 2.0- 0.0 7.0--- 2.8 5.0--
1985-09-02 7.5 9.5 6.6- 92.4 9.6 7.3 2.8 0.0 0.0- 804.3 0.7 0.7 0.0- 0.0 0.4 3.5-- 9.8---
1985-09-03 7.9 11.5 4.8- 74.9 8.1 4.4 14.8 19.8 16.0- 802.6 8.0 0.0 8.0- 0.0 8.6 3.0-- 3.5-- 0.9
1985-09-04 2.8 8.8 0.8- 96.3 7.2 7.5 9.9 13.8 0.0- 799.1 3.4 2.2 1.2- 0.0 1.5 3.7-- 19.4-- 0.3
1985-09-05 1.9 5.0 -0.8- 89.4 6.3 6.4 5.0 0.0 0.0- 801.9 1.2 0.0 1.2- 0.0 6.1 7.0-- 9.1---
1985-09-06 0.7 4.4 -2.8- 97.0 6.3 7.3 9.1 11.8 0.0- 797.2 6.0 4.4 1.6- 0.0 0.4 4.0 4.4 0.6 13.5---
1985-09-07 -4.6 -2.1 -6.1- 95.1 4.1 6.9 13.1 20.8 0.0- 797.0 1.3 0.8 0.5 2 0.0 4.2- 7.7- 12.7---
1985-09-08 -3.7 -2.5 -5.2- 94.0 4.4 7.3 13.5 24.0 4.3- 794.6 1.6 0.4 1.2 3 0.0 1.2- 4.8- 11.8---
1985-09-09 -2.9 -1.8 -5.1- 97.4 4.8 7.6 6.1 0.8 0.0- 794.3 5.8 1.0 4.8 3 0.0 0.1- 12.4- 16.7---
1985-09-10 -0.5 0.0 -2.5- 99.8 5.9 7.9 6.6 3.5 0.0- 801.4 0.3 0.2 0.1 4 0.0 0.4- 6.3- 23.1---
1985-09-11 2.1 4.5 -2.6- 98.4 7.1 6.9 8.6 9.3 0.0- 804.7 1.4 1.3 0.1 2 0.0 0.1 5.8-- 17.4---
5696.4 ms

 

Źródłem pochodzenia danych jest Instytut Meteorologii i Gospodarki Wodnej – Państwowy Instytut Badawczy. Dane Instytutu Meteorologii i Gospodarki Wodnej – Państwowego Instytutu Badawczego zostały przetworzone.

Dane źródłowe można odnaleźć na stronie https://dane.imgw.pl